Chanute Martin Johnson Airport
KCNU : now visible

Airfield :











YOU CAN JOIN US ON...

 
LOGIN :

Register | Disclaimer

   EN    FR    IT 

 









Legend :    VFR   Marginal VFR   IFR   Intensive IFR   Very Intensive IFR
Visi :
Ceiling :
>= 8 km
>= 3000ft
5 to 8 km
1000 to 3000 ft
1500m to 5 km
500 to 1000 ft
800 to 1500m
200 to 500 ft
< 800m
< 200 ft
Symbols :   Thunderstorms  Fog  Heavy snow  Heavy precipitations  Wind > 20 kt






- Airport Elevation : 1002 ft


KCNU - Chanute Martin Johnson

CURRENT METAR :
  • 041452Z AUTO 13003KT 10SM CLR 01/M05 A3027 RMK AO2 SLP260 T00061050 58002

EXPIRED METARs :
  • 041352Z AUTO 09005KT 10SM CLR M01/M05 A3027 RMK AO2 SLP260 T10061050
  • 041252Z AUTO 13005KT 10SM CLR M01/M05 A3028 RMK AO2 SLP261 T10111050

TAF KCNU
Valid from the 04 at 12:00 until the 05 at 12:00 UTC


041134Z 0412/0512 14004KT P6SM BKN150
FM041800 19007KT P6SM BKN120
FM050200 16007KT P6SM BKN110
KZKC FIR / North America



MET'MAP, your aeronautical weather chart ! - Copyright ORBIFLY December 2007 - Disclaimer

ORBIFLY MET'MAP TEAM :

Programming & Development : Alexandra Zaïnal
Original concept : Baudouin d'Aumeries
Technical & hardware support : Manuel Goepfert
Assistance : Marc-Olivier Méhu




SOURCES & CREDITS :

   NOAA       Earth
Advisory